createdAt,value
2019-06-26T00:03:00.763Z,23.38
2019-06-26T00:07:55.697Z,23.33
2019-06-26T00:12:50.526Z,23.30
2019-06-26T00:17:45.297Z,23.23
2019-06-26T00:22:40.136Z,23.20
2019-06-26T00:27:34.919Z,23.15
2019-06-26T00:32:29.723Z,23.08
2019-06-26T00:37:24.532Z,23.02
2019-06-26T00:42:19.311Z,22.89
2019-06-26T00:47:14.123Z,22.80
2019-06-26T00:52:08.964Z,22.72
2019-06-26T00:57:03.817Z,22.63
2019-06-26T01:01:58.680Z,22.54
2019-06-26T01:06:53.516Z,22.47
2019-06-26T01:11:48.370Z,22.39
2019-06-26T01:16:43.296Z,22.35
2019-06-26T01:21:38.124Z,22.29
2019-06-26T01:26:33.030Z,22.28
2019-06-26T01:31:28.013Z,22.26
2019-06-26T01:36:22.853Z,22.25
2019-06-26T01:41:17.760Z,22.23
2019-06-26T01:46:12.548Z,22.18
2019-06-26T01:51:07.417Z,22.14
2019-06-26T01:56:02.231Z,22.08
2019-06-26T02:00:57.028Z,22.05
2019-06-26T02:05:51.879Z,22.00
2019-06-26T02:10:46.756Z,21.95
2019-06-26T02:15:41.604Z,21.92
2019-06-26T02:20:36.540Z,21.87
2019-06-26T02:25:31.418Z,21.80
2019-06-26T02:30:26.196Z,21.70
2019-06-26T02:35:20.955Z,21.65
2019-06-26T02:40:16.328Z,21.57
2019-06-26T02:45:11.632Z,21.50
2019-06-26T02:50:06.675Z,21.41
2019-06-26T02:55:01.412Z,21.37
2019-06-26T02:59:56.201Z,21.35
2019-06-26T03:04:51.138Z,21.31
2019-06-26T03:09:45.960Z,21.21
2019-06-26T03:14:40.713Z,21.19
2019-06-26T03:19:35.486Z,21.20
2019-06-26T03:24:30.297Z,21.23
2019-06-26T03:29:25.283Z,21.25
2019-06-26T03:34:20.089Z,21.25
2019-06-26T03:39:14.864Z,21.25
2019-06-26T03:44:09.746Z,21.23
2019-06-26T03:49:04.707Z,21.25
2019-06-26T03:53:59.487Z,21.27
2019-06-26T03:58:54.284Z,21.26
2019-06-26T04:03:49.136Z,21.26
2019-06-26T04:08:43.921Z,21.27
2019-06-26T04:13:38.684Z,21.32
2019-06-26T04:18:33.475Z,21.36
2019-06-26T04:23:28.269Z,21.41
2019-06-26T04:28:23.053Z,21.43
2019-06-26T04:33:17.861Z,21.48
2019-06-26T04:38:12.705Z,21.56
2019-06-26T04:43:07.495Z,21.70
2019-06-26T04:48:02.585Z,21.84
2019-06-26T04:52:57.345Z,22.05
2019-06-26T04:57:52.158Z,22.22
2019-06-26T05:02:46.927Z,22.44
2019-06-26T05:07:41.726Z,22.47
2019-06-26T05:12:36.561Z,22.64
2019-06-26T05:17:31.339Z,22.79
2019-06-26T05:22:26.115Z,22.93
2019-06-26T05:27:21.027Z,23.07
2019-06-26T05:32:15.847Z,23.15
2019-06-26T05:37:10.629Z,23.35
2019-06-26T05:42:06.811Z,23.50
2019-06-26T05:47:01.754Z,23.70
2019-06-26T05:51:56.547Z,23.87
2019-06-26T05:56:51.331Z,23.99
2019-06-26T06:01:46.238Z,24.19
2019-06-26T06:06:42.359Z,24.38
2019-06-26T06:11:37.277Z,24.50
2019-06-26T06:16:46.229Z,24.81
2019-06-26T06:21:28.713Z,25.06
2019-06-26T06:26:25.281Z,25.06
2019-06-26T06:31:20.038Z,25.12
2019-06-26T06:36:14.826Z,25.42
2019-06-26T06:41:09.630Z,25.58
2019-06-26T06:46:04.466Z,25.91
2019-06-26T06:50:59.322Z,26.43
2019-06-26T06:55:54.080Z,26.42
2019-06-26T07:00:48.999Z,26.88
2019-06-26T07:05:43.765Z,26.83
2019-06-26T07:10:38.576Z,27.02
2019-06-26T07:15:33.471Z,27.21
2019-06-26T07:20:28.372Z,27.42
2019-06-26T07:25:23.238Z,27.80
2019-06-26T07:30:18.507Z,28.13
2019-06-26T07:35:13.362Z,28.39
2019-06-26T07:40:08.298Z,28.49
2019-06-26T07:45:03.233Z,28.79
2019-06-26T07:49:58.131Z,29.08
2019-06-26T07:54:52.907Z,29.27
2019-06-26T07:59:47.882Z,29.42
2019-06-26T08:04:42.690Z,29.67
2019-06-26T08:09:37.498Z,29.82
2019-06-26T08:14:32.279Z,29.95
2019-06-26T08:19:27.151Z,30.13
2019-06-26T08:24:21.921Z,30.31
2019-06-26T08:29:16.887Z,30.63
2019-06-26T08:34:11.790Z,30.79
2019-06-26T08:39:07.663Z,31.16
2019-06-26T08:44:02.439Z,31.35
2019-06-26T08:48:57.216Z,31.42
2019-06-26T08:53:51.969Z,31.60
2019-06-26T08:58:46.927Z,31.83
2019-06-26T09:03:42.620Z,32.13
2019-06-26T09:08:37.385Z,32.25
2019-06-26T09:13:32.302Z,32.51
2019-06-26T09:18:35.604Z,32.65
2019-06-26T09:23:23.775Z,32.77
2019-06-26T09:28:18.650Z,32.99
2019-06-26T09:33:13.451Z,33.10
2019-06-26T09:38:08.297Z,33.36
2019-06-26T09:43:03.082Z,33.54
2019-06-26T09:47:57.867Z,33.82
2019-06-26T09:52:52.840Z,33.97
2019-06-26T09:57:47.718Z,34.08
2019-06-26T10:02:42.586Z,34.40
2019-06-26T10:07:37.420Z,34.49
2019-06-26T10:12:32.216Z,34.55
2019-06-26T10:17:27.008Z,34.54
2019-06-26T10:22:21.825Z,34.58
2019-06-26T10:27:16.838Z,34.72
2019-06-26T10:32:11.727Z,34.72
2019-06-26T10:37:06.617Z,34.78
2019-06-26T10:42:01.431Z,34.82
2019-06-26T10:46:56.291Z,34.89
2019-06-26T10:51:51.177Z,35.02
2019-06-26T10:56:45.979Z,35.02
2019-06-26T11:01:40.825Z,35.13
2019-06-26T11:06:37.226Z,35.27
2019-06-26T11:11:32.212Z,35.15
2019-06-26T11:16:27.093Z,35.20
2019-06-26T11:21:22.039Z,35.19
2019-06-26T11:26:16.896Z,35.13
2019-06-26T11:31:11.879Z,35.32
2019-06-26T11:36:06.654Z,35.21
2019-06-26T11:41:02.071Z,35.41
2019-06-26T11:45:56.956Z,35.36
2019-06-26T11:50:51.786Z,35.40
2019-06-26T11:55:46.812Z,35.53
2019-06-26T12:00:41.847Z,35.56
2019-06-26T12:05:36.725Z,35.68
2019-06-26T12:10:31.514Z,35.66
2019-06-26T12:15:26.446Z,35.69
2019-06-26T12:20:21.782Z,35.84
2019-06-26T12:25:16.932Z,35.80
2019-06-26T12:30:11.896Z,35.79
2019-06-26T12:35:06.941Z,35.83
2019-06-26T12:40:01.759Z,35.76
2019-06-26T12:44:56.707Z,35.70
2019-06-26T12:49:51.532Z,35.78
2019-06-26T12:54:46.380Z,35.83
2019-06-26T12:59:55.943Z,35.80
2019-06-26T13:04:38.326Z,35.71
2019-06-26T13:09:35.439Z,35.77
2019-06-26T13:14:31.287Z,35.71
2019-06-26T13:19:26.178Z,35.81
2019-06-26T13:24:21.092Z,35.78
2019-06-26T13:29:15.920Z,35.86
2019-06-26T13:34:10.709Z,35.92
2019-06-26T13:39:06.803Z,35.94
2019-06-26T13:44:01.617Z,35.93
2019-06-26T13:48:56.393Z,35.97
2019-06-26T13:53:51.207Z,36.12
2019-06-26T13:58:45.983Z,36.33
2019-06-26T14:03:40.807Z,36.36
2019-06-26T14:08:35.584Z,36.39
2019-06-26T14:13:30.522Z,36.52
2019-06-26T14:18:25.358Z,36.88
2019-06-26T14:23:20.376Z,36.74
2019-06-26T14:28:15.148Z,36.95
2019-06-26T14:33:09.959Z,36.58
2019-06-26T14:38:04.823Z,36.99
2019-06-26T14:42:59.620Z,37.00
2019-06-26T14:47:54.554Z,36.85
2019-06-26T14:52:49.447Z,36.74
2019-06-26T14:57:44.236Z,36.89
2019-06-26T15:02:39.519Z,36.78
2019-06-26T15:07:34.990Z,36.96
2019-06-26T15:12:30.013Z,36.79
2019-06-26T15:17:24.793Z,36.44
2019-06-26T15:22:19.649Z,36.50
2019-06-26T15:27:14.446Z,36.38
2019-06-26T15:32:09.266Z,36.73
2019-06-26T15:37:04.158Z,36.64
2019-06-26T15:41:59.127Z,36.77
2019-06-26T15:46:53.924Z,36.55
2019-06-26T15:51:48.769Z,36.45
2019-06-26T15:56:43.574Z,36.28
2019-06-26T16:01:38.385Z,36.17
2019-06-26T16:06:33.217Z,36.17
2019-06-26T16:11:28.177Z,36.28
2019-06-26T16:16:23.578Z,36.23
2019-06-26T16:21:18.516Z,36.24
2019-06-26T16:26:20.106Z,35.99
2019-06-26T16:31:14.963Z,36.06
2019-06-26T16:36:10.015Z,35.62
2019-06-26T16:41:04.975Z,35.56
2019-06-26T16:45:59.734Z,35.61
2019-06-26T16:50:54.630Z,35.45
2019-06-26T16:55:49.425Z,35.53
2019-06-26T17:00:44.330Z,35.09
2019-06-26T17:05:39.338Z,35.06
2019-06-26T17:10:34.335Z,34.86
2019-06-26T17:15:29.246Z,34.64
2019-06-26T17:20:24.006Z,34.57
2019-06-26T17:25:18.909Z,34.40
2019-06-26T17:30:14.070Z,34.20
2019-06-26T17:35:09.992Z,34.11
2019-06-26T17:40:05.955Z,33.95
2019-06-26T17:45:00.717Z,33.67
2019-06-26T17:49:55.478Z,33.53
2019-06-26T17:54:50.347Z,33.46
2019-06-26T17:59:45.214Z,33.29
2019-06-26T18:04:39.989Z,33.12
2019-06-26T18:09:34.791Z,32.71
2019-06-26T18:14:29.611Z,32.50
2019-06-26T18:19:24.386Z,32.17
2019-06-26T18:24:19.227Z,31.98
2019-06-26T18:29:14.069Z,31.79
2019-06-26T18:34:08.882Z,31.59
2019-06-26T18:39:05.248Z,31.32
2019-06-26T18:44:00.101Z,31.10
2019-06-26T18:48:54.906Z,30.83
2019-06-26T18:53:53.601Z,30.78
2019-06-26T18:58:46.268Z,30.61
2019-06-26T19:03:41.071Z,30.37
2019-06-26T19:08:36.231Z,30.23
2019-06-26T19:13:31.041Z,30.08
2019-06-26T19:18:25.886Z,29.84
2019-06-26T19:23:20.689Z,29.65
2019-06-26T19:28:15.569Z,29.55
2019-06-26T19:33:10.425Z,29.35
2019-06-26T19:38:05.324Z,29.05
2019-06-26T19:43:00.151Z,28.89
2019-06-26T19:47:55.035Z,28.84
2019-06-26T19:52:49.981Z,28.59
2019-06-26T19:57:44.771Z,28.52
2019-06-26T20:02:39.860Z,28.26
2019-06-26T20:07:34.925Z,28.12
2019-06-26T20:12:29.975Z,27.99
2019-06-26T20:17:24.928Z,27.91
2019-06-26T20:22:20.166Z,27.71
2019-06-26T20:27:14.973Z,27.67
2019-06-26T20:32:09.783Z,27.63
2019-06-26T20:37:04.696Z,27.45
2019-06-26T20:41:59.486Z,27.19
2019-06-26T20:46:54.782Z,27.12
2019-06-26T20:51:49.570Z,26.94
2019-06-26T20:56:44.421Z,26.77
2019-06-26T21:01:39.204Z,26.66
2019-06-26T21:06:34.167Z,26.34
2019-06-26T21:11:29.494Z,26.20
2019-06-26T21:16:24.470Z,26.05
2019-06-26T21:21:19.349Z,25.88
2019-06-26T21:26:14.191Z,25.79
2019-06-26T21:31:08.958Z,25.65
2019-06-26T21:36:04.757Z,25.49
2019-06-26T21:40:59.606Z,25.38
2019-06-26T21:45:54.615Z,25.27
2019-06-26T21:50:49.414Z,25.10
2019-06-26T21:55:44.308Z,24.93
2019-06-26T22:00:40.265Z,24.74
2019-06-26T22:05:35.167Z,24.72
2019-06-26T22:10:29.985Z,24.57
2019-06-26T22:15:24.766Z,24.43
2019-06-26T22:20:19.706Z,24.24
2019-06-26T22:25:14.764Z,24.12
2019-06-26T22:30:09.884Z,24.01
2019-06-26T22:35:05.187Z,23.87
2019-06-26T22:40:00.024Z,23.73
2019-06-26T22:44:54.811Z,23.59
2019-06-26T22:49:49.603Z,23.50
2019-06-26T22:54:44.554Z,23.37
2019-06-26T22:59:39.470Z,23.29
2019-06-26T23:04:34.284Z,23.01
2019-06-26T23:09:29.068Z,22.94
2019-06-26T23:14:23.836Z,22.73
2019-06-26T23:19:18.648Z,22.59
2019-06-26T23:24:13.530Z,22.39
2019-06-26T23:29:08.339Z,22.19
2019-06-26T23:34:03.129Z,22.10
2019-06-26T23:38:58.088Z,21.92
2019-06-26T23:43:52.900Z,21.73
2019-06-26T23:48:47.696Z,21.70
2019-06-26T23:53:42.449Z,21.44
2019-06-26T23:58:37.268Z,21.18
